sensor_id;sensor_type;location;lat;lon;timestamp;pressure;altitude;pressure_sealevel;temperature
76007;BMP280;64699;0.000;0.000;2023-11-21T00:00:17;99819.94;;;19.58
76007;BMP280;64699;0.000;0.000;2023-11-21T00:02:43;99814.59;;;19.60
76007;BMP280;64699;0.000;0.000;2023-11-21T00:05:12;99816.09;;;19.61
76007;BMP280;64699;0.000;0.000;2023-11-21T00:07:39;99814.22;;;19.63
76007;BMP280;64699;0.000;0.000;2023-11-21T00:10:04;99815.53;;;19.70
76007;BMP280;64699;0.000;0.000;2023-11-21T00:12:30;99822.13;;;19.67
76007;BMP280;64699;0.000;0.000;2023-11-21T00:14:56;99820.84;;;19.68
76007;BMP280;64699;0.000;0.000;2023-11-21T00:17:21;99827.25;;;19.63
76007;BMP280;64699;0.000;0.000;2023-11-21T00:19:46;99826.53;;;19.70
76007;BMP280;64699;0.000;0.000;2023-11-21T00:22:12;99826.19;;;19.66
76007;BMP280;64699;0.000;0.000;2023-11-21T00:24:37;99835.91;;;19.67
76007;BMP280;64699;0.000;0.000;2023-11-21T00:27:02;99839.03;;;19.63
76007;BMP280;64699;0.000;0.000;2023-11-21T00:29:28;99840.16;;;19.60
76007;BMP280;64699;0.000;0.000;2023-11-21T00:31:54;99841.25;;;19.50
76007;BMP280;64699;0.000;0.000;2023-11-21T00:34:19;99839.97;;;19.66
76007;BMP280;64699;0.000;0.000;2023-11-21T00:36:44;99837.19;;;19.58
76007;BMP280;64699;0.000;0.000;2023-11-21T00:39:10;99846.78;;;19.65
76007;BMP280;64699;0.000;0.000;2023-11-21T00:41:36;99845.81;;;19.55
76007;BMP280;64699;0.000;0.000;2023-11-21T00:44:02;99849.69;;;19.67
76007;BMP280;64699;0.000;0.000;2023-11-21T00:46:28;99850.06;;;19.63
76007;BMP280;64699;0.000;0.000;2023-11-21T00:48:54;99846.56;;;19.55
76007;BMP280;64699;0.000;0.000;2023-11-21T00:51:19;99849.72;;;19.44
76007;BMP280;64699;0.000;0.000;2023-11-21T00:53:45;99860.91;;;19.46
76007;BMP280;64699;0.000;0.000;2023-11-21T00:56:10;99864.75;;;19.58
76007;BMP280;64699;0.000;0.000;2023-11-21T00:58:35;99870.47;;;19.75
76007;BMP280;64699;0.000;0.000;2023-11-21T01:01:00;99877.09;;;19.65
76007;BMP280;64699;0.000;0.000;2023-11-21T01:03:25;99876.69;;;19.76
76007;BMP280;64699;0.000;0.000;2023-11-21T01:05:51;99868.41;;;19.76
76007;BMP280;64699;0.000;0.000;2023-11-21T01:08:16;99871.03;;;19.74
76007;BMP280;64699;0.000;0.000;2023-11-21T01:10:41;99875.97;;;19.68
76007;BMP280;64699;0.000;0.000;2023-11-21T01:13:06;99882.03;;;19.59
76007;BMP280;64699;0.000;0.000;2023-11-21T01:15:32;99870.09;;;19.64
76007;BMP280;64699;0.000;0.000;2023-11-21T01:17:57;99868.97;;;19.59
76007;BMP280;64699;0.000;0.000;2023-11-21T01:20:22;99873.94;;;19.61
76007;BMP280;64699;0.000;0.000;2023-11-21T01:22:48;99870.84;;;19.57
76007;BMP280;64699;0.000;0.000;2023-11-21T01:25:14;99873.38;;;19.55
76007;BMP280;64699;0.000;0.000;2023-11-21T01:27:39;99879.81;;;19.50
76007;BMP280;64699;0.000;0.000;2023-11-21T01:30:04;99877.63;;;19.48
76007;BMP280;64699;0.000;0.000;2023-11-21T01:32:32;99880.00;;;19.52
76007;BMP280;64699;0.000;0.000;2023-11-21T01:34:57;99880.16;;;19.39
76007;BMP280;64699;0.000;0.000;2023-11-21T01:37:22;99881.47;;;19.45
76007;BMP280;64699;0.000;0.000;2023-11-21T01:39:48;99886.59;;;19.49
76007;BMP280;64699;0.000;0.000;2023-11-21T01:42:13;99884.03;;;19.51
76007;BMP280;64699;0.000;0.000;2023-11-21T01:44:39;99882.41;;;19.48
76007;BMP280;64699;0.000;0.000;2023-11-21T01:47:07;99878.16;;;19.47
76007;BMP280;64699;0.000;0.000;2023-11-21T01:49:33;99876.66;;;19.46
76007;BMP280;64699;0.000;0.000;2023-11-21T01:51:58;99891.19;;;19.46
76007;BMP280;64699;0.000;0.000;2023-11-21T01:54:24;99882.78;;;19.44
76007;BMP280;64699;0.000;0.000;2023-11-21T01:56:50;99886.03;;;19.35
76007;BMP280;64699;0.000;0.000;2023-11-21T01:59:17;99891.00;;;19.37
76007;BMP280;64699;0.000;0.000;2023-11-21T02:01:43;99891.19;;;19.31
76007;BMP280;64699;0.000;0.000;2023-11-21T02:04:08;99886.03;;;19.35
76007;BMP280;64699;0.000;0.000;2023-11-21T02:06:34;99895.22;;;19.38
76007;BMP280;64699;0.000;0.000;2023-11-21T02:09:00;99895.59;;;19.42
76007;BMP280;64699;0.000;0.000;2023-11-21T02:11:25;99891.56;;;19.43
76007;BMP280;64699;0.000;0.000;2023-11-21T02:13:52;99893.03;;;19.44
76007;BMP280;64699;0.000;0.000;2023-11-21T02:16:19;99895.22;;;19.38
76007;BMP280;64699;0.000;0.000;2023-11-21T02:18:44;99901.09;;;19.34
76007;BMP280;64699;0.000;0.000;2023-11-21T02:21:09;99901.44;;;19.31
76007;BMP280;64699;0.000;0.000;2023-11-21T02:23:35;99902.19;;;19.39
76007;BMP280;64699;0.000;0.000;2023-11-21T02:26:00;99895.59;;;19.27
76007;BMP280;64699;0.000;0.000;2023-11-21T02:28:29;99902.72;;;19.30
76007;BMP280;64699;0.000;0.000;2023-11-21T02:30:54;99892.09;;;19.34
76007;BMP280;64699;0.000;0.000;2023-11-21T02:33:24;99899.25;;;19.37
76007;BMP280;64699;0.000;0.000;2023-11-21T02:35:49;99902.06;;;19.44
76007;BMP280;64699;0.000;0.000;2023-11-21T02:38:14;99915.03;;;19.29
76007;BMP280;64699;0.000;0.000;2023-11-21T02:40:41;99918.91;;;19.41
76007;BMP280;64699;0.000;0.000;2023-11-21T02:43:06;99918.38;;;19.35
76007;BMP280;64699;0.000;0.000;2023-11-21T02:45:32;99909.00;;;19.38
76007;BMP280;64699;0.000;0.000;2023-11-21T02:47:57;99911.00;;;19.30
76007;BMP280;64699;0.000;0.000;2023-11-21T02:50:23;99900.38;;;19.34
76007;BMP280;64699;0.000;0.000;2023-11-21T02:52:48;99907.66;;;19.24
76007;BMP280;64699;0.000;0.000;2023-11-21T02:55:14;99909.53;;;19.29
76007;BMP280;64699;0.000;0.000;2023-11-21T02:57:39;99921.44;;;19.24
76007;BMP280;64699;0.000;0.000;2023-11-21T03:00:04;99921.44;;;19.24
76007;BMP280;64699;0.000;0.000;2023-11-21T03:02:32;99912.06;;;19.19
76007;BMP280;64699;0.000;0.000;2023-11-21T03:04:57;99913.16;;;19.17
76007;BMP280;64699;0.000;0.000;2023-11-21T03:07:23;99903.25;;;19.28
76007;BMP280;64699;0.000;0.000;2023-11-21T03:09:48;99922.53;;;19.21
76007;BMP280;64699;0.000;0.000;2023-11-21T03:12:13;99931.19;;;19.25
76007;BMP280;64699;0.000;0.000;2023-11-21T03:14:39;99925.69;;;19.25
76007;BMP280;64699;0.000;0.000;2023-11-21T03:17:04;99922.38;;;19.26
76007;BMP280;64699;0.000;0.000;2023-11-21T03:19:30;99932.63;;;19.18
76007;BMP280;64699;0.000;0.000;2023-11-21T03:21:55;99922.72;;;19.16
76007;BMP280;64699;0.000;0.000;2023-11-21T03:24:20;99927.66;;;19.10
76007;BMP280;64699;0.000;0.000;2023-11-21T03:26:47;99935.78;;;19.22
76007;BMP280;64699;0.000;0.000;2023-11-21T03:29:12;99931.16;;;19.17
76007;BMP280;64699;0.000;0.000;2023-11-21T03:31:38;99936.31;;;19.21
76007;BMP280;64699;0.000;0.000;2023-11-21T03:34:03;99926.22;;;19.23
76007;BMP280;64699;0.000;0.000;2023-11-21T03:36:28;99937.78;;;19.22
76007;BMP280;64699;0.000;0.000;2023-11-21T03:38:54;99942.00;;;19.23
76007;BMP280;64699;0.000;0.000;2023-11-21T03:41:20;99941.28;;;19.22
76007;BMP280;64699;0.000;0.000;2023-11-21T03:43:45;99951.72;;;19.17
76007;BMP280;64699;0.000;0.000;2023-11-21T03:46:10;99948.78;;;19.22
76007;BMP280;64699;0.000;0.000;2023-11-21T03:48:37;99957.97;;;19.24
76007;BMP280;64699;0.000;0.000;2023-11-21T03:51:02;99960.72;;;19.24
76007;BMP280;64699;0.000;0.000;2023-11-21T03:53:28;99961.09;;;19.21
76007;BMP280;64699;0.000;0.000;2023-11-21T03:55:53;99962.72;;;19.24
76007;BMP280;64699;0.000;0.000;2023-11-21T03:58:18;99960.16;;;19.18
76007;BMP280;64699;0.000;0.000;2023-11-21T04:00:43;99964.25;;;19.25
76007;BMP280;64699;0.000;0.000;2023-11-21T04:03:08;99959.81;;;19.22
76007;BMP280;64699;0.000;0.000;2023-11-21T04:05:34;99967.13;;;19.12
76007;BMP280;64699;0.000;0.000;2023-11-21T04:07:59;99961.81;;;19.14
76007;BMP280;64699;0.000;0.000;2023-11-21T04:10:24;99961.81;;;19.14
76007;BMP280;64699;0.000;0.000;2023-11-21T04:12:49;99968.06;;;19.22
76007;BMP280;64699;0.000;0.000;2023-11-21T04:15:14;99968.47;;;19.26
76007;BMP280;64699;0.000;0.000;2023-11-21T04:17:40;99971.00;;;19.24
76007;BMP280;64699;0.000;0.000;2023-11-21T04:20:05;99955.75;;;19.16
76007;BMP280;64699;0.000;0.000;2023-11-21T04:22:34;99969.69;;;19.10
76007;BMP280;64699;0.000;0.000;2023-11-21T04:24:59;99963.47;;;19.17
76007;BMP280;64699;0.000;0.000;2023-11-21T04:27:24;99971.19;;;19.18
76007;BMP280;64699;0.000;0.000;2023-11-21T04:29:49;99972.63;;;19.12
76007;BMP280;64699;0.000;0.000;2023-11-21T04:32:14;99976.66;;;19.11
76007;BMP280;64699;0.000;0.000;2023-11-21T04:34:40;99975.03;;;19.16
76007;BMP280;64699;0.000;0.000;2023-11-21T04:37:05;99986.00;;;19.08
76007;BMP280;64699;0.000;0.000;2023-11-21T04:39:31;99981.41;;;19.11
76007;BMP280;64699;0.000;0.000;2023-11-21T04:41:56;99993.19;;;19.11
76007;BMP280;64699;0.000;0.000;2023-11-21T04:44:22;99989.16;;;19.12
76007;BMP280;64699;0.000;0.000;2023-11-21T04:46:47;99991.91;;;19.12
76007;BMP280;64699;0.000;0.000;2023-11-21T04:49:12;99990.63;;;19.13
76007;BMP280;64699;0.000;0.000;2023-11-21T04:51:37;99983.47;;;19.10
76007;BMP280;64699;0.000;0.000;2023-11-21T04:54:03;99989.16;;;19.12
76007;BMP280;64699;0.000;0.000;2023-11-21T04:56:28;99981.25;;;19.09
76007;BMP280;64699;0.000;0.000;2023-11-21T04:58:53;99989.50;;;19.16
76007;BMP280;64699;0.000;0.000;2023-11-21T05:01:18;99982.53;;;19.15
76007;BMP280;64699;0.000;0.000;2023-11-21T05:03:44;99997.09;;;19.23
76007;BMP280;64699;0.000;0.000;2023-11-21T05:06:09;99987.16;;;19.27
76007;BMP280;64699;0.000;0.000;2023-11-21T05:08:34;99996.00;;;19.26
76007;BMP280;64699;0.000;0.000;2023-11-21T05:11:02;99991.78;;;19.25
76007;BMP280;64699;0.000;0.000;2023-11-21T05:13:27;99992.53;;;19.33
76007;BMP280;64699;0.000;0.000;2023-11-21T05:15:54;100006.69;;;19.37
76007;BMP280;64699;0.000;0.000;2023-11-21T05:18:19;99992.91;;;19.37
76007;BMP280;64699;0.000;0.000;2023-11-21T05:20:44;100001.34;;;19.31
76007;BMP280;64699;0.000;0.000;2023-11-21T05:23:09;100004.47;;;19.35
76007;BMP280;64699;0.000;0.000;2023-11-21T05:25:35;100017.69;;;19.37
76007;BMP280;64699;0.000;0.000;2023-11-21T05:28:01;100027.81;;;19.42
76007;BMP280;64699;0.000;0.000;2023-11-21T05:30:27;100031.84;;;19.41
76007;BMP280;64699;0.000;0.000;2023-11-21T05:32:53;100040.31;;;19.43
76007;BMP280;64699;0.000;0.000;2023-11-21T05:35:18;100036.44;;;19.46
76007;BMP280;64699;0.000;0.000;2023-11-21T05:37:44;100036.09;;;19.49
76007;BMP280;64699;0.000;0.000;2023-11-21T05:40:09;100030.41;;;19.55
76007;BMP280;64699;0.000;0.000;2023-11-21T05:42:35;100034.47;;;19.54
76007;BMP280;64699;0.000;0.000;2023-11-21T05:45:00;100042.78;;;19.61
76007;BMP280;64699;0.000;0.000;2023-11-21T05:47:36;100039.97;;;19.54
76007;BMP280;64699;0.000;0.000;2023-11-21T05:50:02;100046.59;;;19.58
76007;BMP280;64699;0.000;0.000;2023-11-21T05:52:28;100055.97;;;19.55
76007;BMP280;64699;0.000;0.000;2023-11-21T05:54:53;100048.81;;;19.52
76007;BMP280;64699;0.000;0.000;2023-11-21T05:57:18;100047.31;;;19.51
76007;BMP280;64699;0.000;0.000;2023-11-21T05:59:43;100047.56;;;19.68
76007;BMP280;64699;0.000;0.000;2023-11-21T06:02:08;100052.16;;;19.66
76007;BMP280;64699;0.000;0.000;2023-11-21T06:04:34;100052.88;;;19.59
76007;BMP280;64699;0.000;0.000;2023-11-21T06:06:59;100062.25;;;19.56
76007;BMP280;64699;0.000;0.000;2023-11-21T06:09:25;100061.66;;;19.50
76007;BMP280;64699;0.000;0.000;2023-11-21T06:11:50;100072.34;;;19.61
76007;BMP280;64699;0.000;0.000;2023-11-21T06:14:16;100064.28;;;19.70
76007;BMP280;64699;0.000;0.000;2023-11-21T06:16:42;100063.56;;;19.70
76007;BMP280;64699;0.000;0.000;2023-11-21T06:19:10;100062.09;;;19.76
76007;BMP280;64699;0.000;0.000;2023-11-21T06:21:35;100065.94;;;19.73
76007;BMP280;64699;0.000;0.000;2023-11-21T06:24:00;100065.00;;;19.71
76007;BMP280;64699;0.000;0.000;2023-11-21T06:26:26;100063.19;;;19.66
76007;BMP280;64699;0.000;0.000;2023-11-21T06:28:52;100069.06;;;19.70
76007;BMP280;64699;0.000;0.000;2023-11-21T06:31:17;100076.78;;;19.64
76007;BMP280;64699;0.000;0.000;2023-11-21T06:33:43;100086.16;;;19.76
76007;BMP280;64699;0.000;0.000;2023-11-21T06:36:08;100086.91;;;19.84
76007;BMP280;64699;0.000;0.000;2023-11-21T06:38:36;100098.88;;;19.79
76007;BMP280;64699;0.000;0.000;2023-11-21T06:41:01;100099.94;;;19.76
76007;BMP280;64699;0.000;0.000;2023-11-21T06:43:27;100101.41;;;19.77
76007;BMP280;64699;0.000;0.000;2023-11-21T06:45:52;100105.47;;;19.76
76007;BMP280;64699;0.000;0.000;2023-11-21T06:48:18;100111.06;;;19.48
76007;BMP280;64699;0.000;0.000;2023-11-21T06:50:43;100116.25;;;19.59
76007;BMP280;64699;0.000;0.000;2023-11-21T06:53:08;100105.97;;;19.67
76007;BMP280;64699;0.000;0.000;2023-11-21T06:55:34;100124.38;;;19.72
76007;BMP280;64699;0.000;0.000;2023-11-21T06:58:00;100121.44;;;19.70
76007;BMP280;64699;0.000;0.000;2023-11-21T07:00:25;100117.59;;;19.73
76007;BMP280;64699;0.000;0.000;2023-11-21T07:02:52;100116.88;;;19.87
76007;BMP280;64699;0.000;0.000;2023-11-21T07:05:18;100120.72;;;19.77
76007;BMP280;64699;0.000;0.000;2023-11-21T07:07:46;100127.91;;;19.80
76007;BMP280;64699;0.000;0.000;2023-11-21T07:10:11;100130.47;;;19.78
76007;BMP280;64699;0.000;0.000;2023-11-21T07:12:36;100132.47;;;19.70
76007;BMP280;64699;0.000;0.000;2023-11-21T07:15:02;100135.59;;;19.74
76007;BMP280;64699;0.000;0.000;2023-11-21T07:17:27;100128.78;;;19.75
76007;BMP280;64699;0.000;0.000;2023-11-21T07:19:52;100132.84;;;19.74
76007;BMP280;64699;0.000;0.000;2023-11-21T07:22:18;100133.72;;;19.61
76007;BMP280;64699;0.000;0.000;2023-11-21T07:24:47;100137.00;;;19.60
76007;BMP280;64699;0.000;0.000;2023-11-21T07:27:13;100135.69;;;19.53
76007;BMP280;64699;0.000;0.000;2023-11-21T07:29:38;100141.41;;;19.63
76007;BMP280;64699;0.000;0.000;2023-11-21T07:32:05;100141.59;;;19.57
76007;BMP280;64699;0.000;0.000;2023-11-21T07:34:30;100149.31;;;19.59
76007;BMP280;64699;0.000;0.000;2023-11-21T07:36:55;100149.84;;;19.57
76007;BMP280;64699;0.000;0.000;2023-11-21T07:39:21;100149.81;;;19.50
76007;BMP280;64699;0.000;0.000;2023-11-21T07:41:46;100149.19;;;19.72
76007;BMP280;64699;0.000;0.000;2023-11-21T07:44:13;100148.47;;;19.79
76007;BMP280;64699;0.000;0.000;2023-11-21T07:46:39;100151.53;;;19.60
76007;BMP280;64699;0.000;0.000;2023-11-21T07:49:05;100150.97;;;19.62
76007;BMP280;64699;0.000;0.000;2023-11-21T07:51:30;100148.19;;;19.62
76007;BMP280;64699;0.000;0.000;2023-11-21T07:53:56;100143.13;;;19.66
76007;BMP280;64699;0.000;0.000;2023-11-21T07:56:21;100139.41;;;19.63
76007;BMP280;64699;0.000;0.000;2023-11-21T07:58:46;100145.44;;;19.62
76007;BMP280;64699;0.000;0.000;2023-11-21T08:01:11;100146.16;;;19.55
76007;BMP280;64699;0.000;0.000;2023-11-21T08:03:37;100148.91;;;19.55
76007;BMP280;64699;0.000;0.000;2023-11-21T08:06:02;100146.91;;;19.55
76007;BMP280;64699;0.000;0.000;2023-11-21T08:08:30;100159.94;;;19.55
76007;BMP280;64699;0.000;0.000;2023-11-21T08:10:57;100156.38;;;19.39
76007;BMP280;64699;0.000;0.000;2023-11-21T08:13:26;100159.75;;;19.53
76007;BMP280;64699;0.000;0.000;2023-11-21T08:15:53;100159.34;;;19.49
76007;BMP280;64699;0.000;0.000;2023-11-21T08:18:19;100162.31;;;19.51
76007;BMP280;64699;0.000;0.000;2023-11-21T08:20:44;100171.69;;;19.48
76007;BMP280;64699;0.000;0.000;2023-11-21T08:23:12;100175.88;;;19.49
76007;BMP280;64699;0.000;0.000;2023-11-21T08:25:37;100170.38;;;19.49
76007;BMP280;64699;0.000;0.000;2023-11-21T08:28:03;100167.06;;;19.50
76007;BMP280;64699;0.000;0.000;2023-11-21T08:30:30;100177.31;;;19.42
76007;BMP280;64699;0.000;0.000;2023-11-21T08:32:55;100182.81;;;19.42
76007;BMP280;64699;0.000;0.000;2023-11-21T08:35:23;100185.72;;;19.37
76007;BMP280;64699;0.000;0.000;2023-11-21T08:37:48;100183.72;;;19.37
76007;BMP280;64699;0.000;0.000;2023-11-21T08:40:15;100185.47;;;19.48
76007;BMP280;64699;0.000;0.000;2023-11-21T08:42:42;100188.69;;;19.39
76007;BMP280;64699;0.000;0.000;2023-11-21T08:45:07;100193.06;;;19.34
76007;BMP280;64699;0.000;0.000;2023-11-21T08:47:34;100199.69;;;19.39
76007;BMP280;64699;0.000;0.000;2023-11-21T08:49:59;100197.50;;;19.37
76007;BMP280;64699;0.000;0.000;2023-11-21T08:52:24;100200.09;;;19.43
76007;BMP280;64699;0.000;0.000;2023-11-21T08:54:50;100204.13;;;19.42
76007;BMP280;64699;0.000;0.000;2023-11-21T08:57:23;100195.88;;;19.42
76007;BMP280;64699;0.000;0.000;2023-11-21T08:59:48;100202.47;;;19.39
76007;BMP280;64699;0.000;0.000;2023-11-21T09:02:14;100199.69;;;19.39
76007;BMP280;64699;0.000;0.000;2023-11-21T09:04:39;100194.19;;;19.39
76007;BMP280;64699;0.000;0.000;2023-11-21T09:07:04;100203.72;;;19.38
76007;BMP280;64699;0.000;0.000;2023-11-21T09:09:30;100208.50;;;19.37
76007;BMP280;64699;0.000;0.000;2023-11-21T09:11:55;100209.59;;;19.34
76007;BMP280;64699;0.000;0.000;2023-11-21T09:14:21;100202.22;;;19.29
76007;BMP280;64699;0.000;0.000;2023-11-21T09:16:46;100208.88;;;19.34
76007;BMP280;64699;0.000;0.000;2023-11-21T09:19:12;100209.38;;;19.32
76007;BMP280;64699;0.000;0.000;2023-11-21T09:21:39;100211.06;;;19.35
76007;BMP280;64699;0.000;0.000;2023-11-21T09:24:04;100218.78;;;19.37
76007;BMP280;64699;0.000;0.000;2023-11-21T09:26:29;100213.09;;;19.35
76007;BMP280;64699;0.000;0.000;2023-11-21T09:28:55;100218.59;;;19.35
76007;BMP280;64699;0.000;0.000;2023-11-21T09:31:21;100218.78;;;19.37
76007;BMP280;64699;0.000;0.000;2023-11-21T09:33:48;100219.66;;;19.32
76007;BMP280;64699;0.000;0.000;2023-11-21T09:36:14;100230.91;;;18.93
76007;BMP280;64699;0.000;0.000;2023-11-21T09:38:43;100220.44;;;19.12
76007;BMP280;64699;0.000;0.000;2023-11-21T09:41:10;100221.97;;;19.20
76007;BMP280;64699;0.000;0.000;2023-11-21T09:43:37;100215.38;;;19.23
76007;BMP280;64699;0.000;0.000;2023-11-21T09:46:03;100220.38;;;19.25
76007;BMP280;64699;0.000;0.000;2023-11-21T09:48:30;100225.13;;;19.24
76007;BMP280;64699;0.000;0.000;2023-11-21T09:50:55;100220.22;;;19.30
76007;BMP280;64699;0.000;0.000;2023-11-21T09:53:21;100219.88;;;19.34
76007;BMP280;64699;0.000;0.000;2023-11-21T09:55:52;100227.75;;;19.30
76007;BMP280;64699;0.000;0.000;2023-11-21T09:58:18;100225.38;;;19.34
76007;BMP280;64699;0.000;0.000;2023-11-21T10:00:45;100222.84;;;19.36
76007;BMP280;64699;0.000;0.000;2023-11-21T10:03:10;100222.22;;;19.30
76007;BMP280;64699;0.000;0.000;2023-11-21T10:05:36;100230.50;;;19.30
76007;BMP280;64699;0.000;0.000;2023-11-21T10:08:04;100232.72;;;19.31
76007;BMP280;64699;0.000;0.000;2023-11-21T10:10:29;100224.63;;;19.33
76007;BMP280;64699;0.000;0.000;2023-11-21T10:12:57;100229.00;;;19.29
76007;BMP280;64699;0.000;0.000;2023-11-21T10:15:24;100239.28;;;19.28
76007;BMP280;64699;0.000;0.000;2023-11-21T10:17:52;100237.78;;;19.27
76007;BMP280;64699;0.000;0.000;2023-11-21T10:20:19;100243.13;;;19.25
76007;BMP280;64699;0.000;0.000;2023-11-21T10:22:44;100240.91;;;19.24
76007;BMP280;64699;0.000;0.000;2023-11-21T10:25:09;100250.41;;;19.16
76007;BMP280;64699;0.000;0.000;2023-11-21T10:27:36;100247.50;;;19.21
76007;BMP280;64699;0.000;0.000;2023-11-21T10:30:02;100234.81;;;19.18
76007;BMP280;64699;0.000;0.000;2023-11-21T10:32:29;100238.25;;;19.11
76007;BMP280;64699;0.000;0.000;2023-11-21T10:34:57;100241.38;;;19.15
76007;BMP280;64699;0.000;0.000;2023-11-21T10:37:24;100234.41;;;19.14
76007;BMP280;64699;0.000;0.000;2023-11-21T10:39:50;100245.84;;;19.18
76007;BMP280;64699;0.000;0.000;2023-11-21T10:42:15;100244.38;;;19.17
76007;BMP280;64699;0.000;0.000;2023-11-21T10:44:42;100238.84;;;19.17
76007;BMP280;64699;0.000;0.000;2023-11-21T10:47:09;100235.47;;;19.11
76007;BMP280;64699;0.000;0.000;2023-11-21T10:49:36;100241.19;;;19.13
76007;BMP280;64699;0.000;0.000;2023-11-21T10:52:02;100244.22;;;19.02
76007;BMP280;64699;0.000;0.000;2023-11-21T10:54:28;100243.00;;;19.11
76007;BMP280;64699;0.000;0.000;2023-11-21T10:56:57;100254.56;;;19.09
76007;BMP280;64699;0.000;0.000;2023-11-21T10:59:23;100252.22;;;19.13
76007;BMP280;64699;0.000;0.000;2023-11-21T11:01:51;100253.47;;;19.12
76007;BMP280;64699;0.000;0.000;2023-11-21T11:04:18;100254.56;;;19.09
76007;BMP280;64699;0.000;0.000;2023-11-21T11:06:43;100257.59;;;19.18
76007;BMP280;64699;0.000;0.000;2023-11-21T11:09:12;100252.38;;;19.15
76007;BMP280;64699;0.000;0.000;2023-11-21T11:11:39;100260.47;;;19.13
76007;BMP280;64699;0.000;0.000;2023-11-21T11:14:06;100253.47;;;19.12
76007;BMP280;64699;0.000;0.000;2023-11-21T11:16:31;100259.00;;;19.12
76007;BMP280;64699;0.000;0.000;2023-11-21T11:18:57;100256.25;;;19.12
76007;BMP280;64699;0.000;0.000;2023-11-21T11:29:23;100262.59;;;19.07
76007;BMP280;64699;0.000;0.000;2023-11-21T11:34:41;100266.44;;;19.04
76007;BMP280;64699;0.000;0.000;2023-11-21T11:37:08;100269.94;;;19.05
76007;BMP280;64699;0.000;0.000;2023-11-21T11:39:37;100268.69;;;19.06
76007;BMP280;64699;0.000;0.000;2023-11-21T11:42:05;100269.38;;;19.06
76007;BMP280;64699;0.000;0.000;2023-11-21T11:47:14;100265.38;;;19.07
76007;BMP280;64699;0.000;0.000;2023-11-21T11:52:48;100274.19;;;19.06
76007;BMP280;64699;0.000;0.000;2023-11-21T11:55:16;100278.94;;;19.05
76007;BMP280;64699;0.000;0.000;2023-11-21T11:57:44;100278.94;;;19.05
76007;BMP280;64699;0.000;0.000;2023-11-21T12:00:21;100273.75;;;19.02
76007;BMP280;64699;0.000;0.000;2023-11-21T12:02:56;100280.94;;;19.05
76007;BMP280;64699;0.000;0.000;2023-11-21T12:05:22;100287.97;;;19.06
76007;BMP280;64699;0.000;0.000;2023-11-21T12:07:51;100288.34;;;19.10
76007;BMP280;64699;0.000;0.000;2023-11-21T12:10:23;100287.06;;;19.11
76007;BMP280;64699;0.000;0.000;2023-11-21T12:12:50;100292.28;;;19.01
76007;BMP280;64699;0.000;0.000;2023-11-21T12:15:17;100289.75;;;19.03
76007;BMP280;64699;0.000;0.000;2023-11-21T12:17:43;100286.25;;;19.03
76007;BMP280;64699;0.000;0.000;2023-11-21T12:20:08;100296.88;;;18.99
76007;BMP280;64699;0.000;0.000;2023-11-21T12:22:49;100301.09;;;19.00
76007;BMP280;64699;0.000;0.000;2023-11-21T12:25:17;100296.13;;;18.98
76007;BMP280;64699;0.000;0.000;2023-11-21T12:27:46;100302.47;;;18.93
76007;BMP280;64699;0.000;0.000;2023-11-21T12:30:14;100297.19;;;18.95
76007;BMP280;64699;0.000;0.000;2023-11-21T12:32:40;100290.94;;;18.95
76007;BMP280;64699;0.000;0.000;2023-11-21T12:35:09;100291.88;;;18.97
76007;BMP280;64699;0.000;0.000;2023-11-21T12:37:35;100300.69;;;18.96
76007;BMP280;64699;0.000;0.000;2023-11-21T12:40:00;100300.69;;;18.96
76007;BMP280;64699;0.000;0.000;2023-11-21T12:42:26;100294.03;;;18.91
76007;BMP280;64699;0.000;0.000;2023-11-21T12:47:40;100306.31;;;18.90
76007;BMP280;64699;0.000;0.000;2023-11-21T12:50:05;100313.88;;;19.10
76007;BMP280;64699;0.000;0.000;2023-11-21T12:52:32;100309.25;;;19.05
76007;BMP280;64699;0.000;0.000;2023-11-21T12:54:57;100311.03;;;19.03
76007;BMP280;64699;0.000;0.000;2023-11-21T12:57:25;100317.97;;;18.96
76007;BMP280;64699;0.000;0.000;2023-11-21T12:59:52;100313.50;;;18.93
76007;BMP280;64699;0.000;0.000;2023-11-21T13:02:19;100320.50;;;18.94
76007;BMP280;64699;0.000;0.000;2023-11-21T13:04:51;100326.34;;;18.91
76007;BMP280;64699;0.000;0.000;2023-11-21T13:07:16;100326.34;;;18.91
76007;BMP280;64699;0.000;0.000;2023-11-21T13:09:42;100327.94;;;18.86
76007;BMP280;64699;0.000;0.000;2023-11-21T13:12:07;100327.06;;;18.91
76007;BMP280;64699;0.000;0.000;2023-11-21T13:14:35;100331.50;;;18.94
76007;BMP280;64699;0.000;0.000;2023-11-21T13:17:00;100334.47;;;18.96
76007;BMP280;64699;0.000;0.000;2023-11-21T13:19:25;100336.25;;;18.94
76007;BMP280;64699;0.000;0.000;2023-11-21T13:21:52;100342.09;;;18.90
76007;BMP280;64699;0.000;0.000;2023-11-21T13:24:17;100347.22;;;18.86
76007;BMP280;64699;0.000;0.000;2023-11-21T13:26:43;100349.72;;;18.84
76007;BMP280;64699;0.000;0.000;2023-11-21T13:29:10;100349.22;;;18.86
76007;BMP280;64699;0.000;0.000;2023-11-21T13:31:38;100351.44;;;18.87
76007;BMP280;64699;0.000;0.000;2023-11-21T13:34:06;100355.22;;;18.84
76007;BMP280;64699;0.000;0.000;2023-11-21T13:36:33;100359.47;;;18.85
76007;BMP280;64699;0.000;0.000;2023-11-21T13:39:00;100360.75;;;18.84
76007;BMP280;64699;0.000;0.000;2023-11-21T13:41:29;100362.22;;;18.85
76007;BMP280;64699;0.000;0.000;2023-11-21T13:43:56;100361.50;;;18.85
76007;BMP280;64699;0.000;0.000;2023-11-21T13:46:31;100364.56;;;18.81
76007;BMP280;64699;0.000;0.000;2023-11-21T13:49:02;100365.50;;;18.84
76007;BMP280;64699;0.000;0.000;2023-11-21T13:51:27;100371.56;;;18.82
76007;BMP280;64699;0.000;0.000;2023-11-21T13:54:02;100379.41;;;18.78
76007;BMP280;64699;0.000;0.000;2023-11-21T13:56:30;100382.16;;;18.78
76007;BMP280;64699;0.000;0.000;2023-11-21T13:58:56;100383.22;;;18.88
76007;BMP280;64699;0.000;0.000;2023-11-21T14:01:24;100382.63;;;18.90
76007;BMP280;64699;0.000;0.000;2023-11-21T14:03:49;100390.06;;;18.95
76007;BMP280;64699;0.000;0.000;2023-11-21T14:06:22;100397.66;;;19.02
76007;BMP280;64699;0.000;0.000;2023-11-21T14:08:55;100405.59;;;19.05
76007;BMP280;64699;0.000;0.000;2023-11-21T14:11:21;100417.13;;;19.04
76007;BMP280;64699;0.000;0.000;2023-11-21T14:13:47;100430.84;;;18.96
76007;BMP280;64699;0.000;0.000;2023-11-21T14:16:13;100426.16;;;18.91
76007;BMP280;64699;0.000;0.000;2023-11-21T14:18:39;100430.00;;;18.88
76007;BMP280;64699;0.000;0.000;2023-11-21T14:21:15;100438.56;;;18.85
76007;BMP280;64699;0.000;0.000;2023-11-21T14:23:41;100450.53;;;18.87
76007;BMP280;64699;0.000;0.000;2023-11-21T14:26:06;100450.72;;;18.89